NCAR-RAP Real-Time Weather Data

Output produced by METARs form (02 September 2014  11:31 UTC)
found at http://weather.rap.ucar.edu/surface/
 
Conditions at: KSDF observed 02 September 2014  10:56 UTC
Temperature: 26.1°C (79°F)
Dewpoint: 20.6°C (69°F) [RH = 72%]
Pressure (altimeter): 29.96 inches Hg (1014.6 mb)
[Sea-level pressure: 1013.8 mb]
Winds: from the SSW (200 degrees) at 10 MPH (9 knots; 4.7 m/s)
Visibility: 10 or more miles (16+ km)
Ceiling: 25000 feet AGL
Clouds: few clouds at 4000 feet AGL
few clouds at 7500 feet AGL
scattered clouds at 10000 feet AGL
overcast cloud deck at 25000 feet AGL
Present Weather: no significant weather observed at this time
KSDF 021056Z 20009KT 10SM FEW040 FEW075 SCT100 OVC250 26/21 A2996 RMK AO2 SLP138 CONS LTGICCC NW-NE CB NW-NE T02610206